Terminal Aerodrome Forecast
Issued by NWS Sterling, VA

Current Version | Previous Version | Text Only | Print | Product List | Glossary Off
Versions: 1 2 3 4 5 6 7 8 9 10 11 12 13 14 15 16 17 18 19 20 21 22

168
FTUS41 KLWX 231500 AAA
TAFIAD
TAF AMD
KIAD 231500Z 2315/2418 31009KT P6SM FEW050
     FM232100 30009KT P6SM BKN050
     FM240200 31004KT P6SM SCT060
     FM241200 01004KT P6SM FEW200
     FM241700 26004KT P6SM FEW060=

USA.gov is the U.S. government's official web portal to all federal, state and local government web resources and services.